createdAt,value
2018-05-07T00:01:06.233Z,76.22
2018-05-07T00:03:32.036Z,76.07
2018-05-07T00:05:58.052Z,76.06
2018-05-07T00:08:23.892Z,75.97
2018-05-07T00:10:49.744Z,76.24
2018-05-07T00:13:15.622Z,76.46
2018-05-07T00:15:41.481Z,76.68
2018-05-07T00:18:07.349Z,76.75
2018-05-07T00:20:33.273Z,76.80
2018-05-07T00:22:59.135Z,76.98
2018-05-07T00:25:24.989Z,76.96
2018-05-07T00:27:50.842Z,76.96
2018-05-07T00:30:16.716Z,77.04
2018-05-07T00:32:42.568Z,76.93
2018-05-07T00:35:08.498Z,77.14
2018-05-07T00:37:34.332Z,77.41
2018-05-07T00:40:00.170Z,77.41
2018-05-07T00:42:26.019Z,77.41
2018-05-07T00:44:51.862Z,77.48
2018-05-07T00:47:17.714Z,77.72
2018-05-07T00:49:43.564Z,77.85
2018-05-07T00:52:09.411Z,77.97
2018-05-07T00:54:47.649Z,78.05
2018-05-07T00:57:13.499Z,78.43
2018-05-07T00:59:39.337Z,78.50
2018-05-07T01:02:05.219Z,78.58
2018-05-07T01:04:31.087Z,78.79
2018-05-07T01:06:56.985Z,78.73
2018-05-07T01:09:22.851Z,78.72
2018-05-07T01:11:48.719Z,78.74
2018-05-07T01:14:14.559Z,78.63
2018-05-07T01:16:40.450Z,78.52
2018-05-07T01:19:06.304Z,78.52
2018-05-07T01:21:32.168Z,78.51
2018-05-07T01:23:58.059Z,78.31
2018-05-07T01:26:23.939Z,78.52
2018-05-07T01:28:49.788Z,78.49
2018-05-07T01:31:15.647Z,78.52
2018-05-07T01:33:41.511Z,78.59
2018-05-07T01:36:07.368Z,78.88
2018-05-07T01:38:33.216Z,79.03
2018-05-07T01:40:59.039Z,79.37
2018-05-07T01:43:24.907Z,79.05
2018-05-07T01:45:50.754Z,79.01
2018-05-07T01:48:16.612Z,79.25
2018-05-07T01:53:35.254Z,79.13
2018-05-07T01:56:01.137Z,79.16
2018-05-07T01:58:27.004Z,79.27
2018-05-07T02:00:52.863Z,79.17
2018-05-07T02:03:18.728Z,79.25
2018-05-07T02:05:44.606Z,79.48
2018-05-07T02:08:10.460Z,79.67
2018-05-07T02:10:36.330Z,79.75
2018-05-07T02:13:02.205Z,79.43
2018-05-07T02:15:28.044Z,79.71
2018-05-07T02:17:53.916Z,79.93
2018-05-07T02:20:19.774Z,80.34
2018-05-07T02:22:45.647Z,80.47
2018-05-07T02:25:11.495Z,80.53
2018-05-07T02:27:37.341Z,80.25
2018-05-07T02:30:03.237Z,80.15
2018-05-07T02:32:29.098Z,80.48
2018-05-07T02:34:54.932Z,80.57
2018-05-07T02:37:20.810Z,80.57
2018-05-07T02:39:46.667Z,80.60
2018-05-07T02:42:12.515Z,80.68
2018-05-07T02:44:38.377Z,80.77
2018-05-07T02:47:04.240Z,81.03
2018-05-07T02:49:30.105Z,80.85
2018-05-07T02:51:55.964Z,81.13
2018-05-07T02:54:21.823Z,81.15
2018-05-07T02:56:47.704Z,81.51
2018-05-07T02:59:13.560Z,82.04
2018-05-07T03:01:39.405Z,81.41
2018-05-07T03:04:05.268Z,81.23
2018-05-07T03:06:31.136Z,81.49
2018-05-07T03:08:57.000Z,81.02
2018-05-07T03:11:22.874Z,81.20
2018-05-07T03:13:48.706Z,81.42
2018-05-07T03:16:14.556Z,81.22
2018-05-07T03:18:40.432Z,81.22
2018-05-07T03:21:06.293Z,81.30
2018-05-07T03:23:32.141Z,81.58
2018-05-07T03:25:58.004Z,81.57
2018-05-07T03:28:23.871Z,81.72
2018-05-07T03:30:49.741Z,81.78
2018-05-07T03:33:15.574Z,81.92
2018-05-07T03:35:41.436Z,81.68
2018-05-07T03:38:07.273Z,81.92
2018-05-07T03:40:33.223Z,82.27
2018-05-07T03:42:59.023Z,82.24
2018-05-07T03:45:24.863Z,82.29
2018-05-07T03:47:50.710Z,82.61
2018-05-07T03:50:16.545Z,83.64
2018-05-07T03:52:42.419Z,83.37
2018-05-07T03:55:08.366Z,82.96
2018-05-07T03:57:34.211Z,82.90
2018-05-07T04:00:00.071Z,82.73
2018-05-07T04:02:25.949Z,82.72
2018-05-07T04:04:51.817Z,82.80
2018-05-07T04:07:17.830Z,82.73
2018-05-07T04:09:43.672Z,82.76
2018-05-07T04:12:09.539Z,82.87
2018-05-07T04:14:35.401Z,82.89
2018-05-07T04:17:13.636Z,83.14
2018-05-07T04:19:51.782Z,82.75
2018-05-07T04:22:29.944Z,83.47
2018-05-07T04:24:55.805Z,83.48
2018-05-07T04:27:21.641Z,83.30
2018-05-07T04:29:47.513Z,83.31
2018-05-07T04:32:13.375Z,83.52
2018-05-07T04:34:39.226Z,83.12
2018-05-07T04:37:05.055Z,83.53
2018-05-07T04:39:30.920Z,83.68
2018-05-07T04:41:56.798Z,83.88
2018-05-07T04:44:22.670Z,83.97
2018-05-07T04:46:48.537Z,84.11
2018-05-07T04:49:14.383Z,84.27
2018-05-07T04:51:40.261Z,84.18
2018-05-07T04:54:06.112Z,84.23
2018-05-07T04:56:31.956Z,84.33
2018-05-07T04:58:57.811Z,84.30
2018-05-07T05:01:23.688Z,84.20
2018-05-07T05:03:49.542Z,84.43
2018-05-07T05:06:15.452Z,84.75
2018-05-07T05:08:41.276Z,84.67
2018-05-07T05:11:07.135Z,84.94
2018-05-07T05:13:33.007Z,85.07
2018-05-07T05:15:58.837Z,84.66
2018-05-07T05:18:24.734Z,85.32
2018-05-07T05:20:50.598Z,85.24
2018-05-07T05:23:16.497Z,85.20
2018-05-07T05:25:42.344Z,85.44
2018-05-07T05:28:08.248Z,85.75
2018-05-07T05:30:34.104Z,85.71
2018-05-07T05:32:59.952Z,85.70
2018-05-07T05:35:25.794Z,85.92
2018-05-07T05:37:51.645Z,85.12
2018-05-07T05:40:17.502Z,85.54
2018-05-07T05:42:43.357Z,85.88
2018-05-07T05:45:09.208Z,85.63
2018-05-07T05:47:35.055Z,84.09
2018-05-07T05:50:00.948Z,84.09
2018-05-07T05:52:26.815Z,83.56
2018-05-07T05:54:52.673Z,82.37
2018-05-07T05:57:18.529Z,82.10
2018-05-07T05:59:44.383Z,82.37
2018-05-07T06:02:10.227Z,83.23
2018-05-07T06:04:36.085Z,83.38
2018-05-07T06:07:01.972Z,83.74
2018-05-07T06:09:27.826Z,83.14
2018-05-07T06:11:53.726Z,81.67
2018-05-07T06:14:19.570Z,81.46
2018-05-07T06:16:45.421Z,80.95
2018-05-07T06:19:11.248Z,79.30
2018-05-07T06:21:37.159Z,78.37
2018-05-07T06:24:03.026Z,77.96
2018-05-07T06:26:28.904Z,77.26
2018-05-07T06:28:54.766Z,76.93
2018-05-07T06:31:20.641Z,76.49
2018-05-07T06:33:46.512Z,76.73
2018-05-07T06:36:12.357Z,75.86
2018-05-07T06:38:38.253Z,77.67
2018-05-07T06:41:04.117Z,76.23
2018-05-07T06:43:29.969Z,77.51
2018-05-07T06:45:55.904Z,76.40
2018-05-07T06:48:21.740Z,76.65
2018-05-07T06:50:47.655Z,77.28
2018-05-07T06:53:13.489Z,76.18
2018-05-07T06:55:39.353Z,73.74
2018-05-07T06:58:05.197Z,75.52
2018-05-07T07:00:31.073Z,73.97
2018-05-07T07:02:57.125Z,73.77
2018-05-07T07:05:22.845Z,75.98
2018-05-07T07:07:48.720Z,74.77
2018-05-07T07:10:14.571Z,75.59
2018-05-07T07:12:40.456Z,75.40
2018-05-07T07:15:06.355Z,74.75
2018-05-07T07:17:32.212Z,75.60
2018-05-07T07:19:58.099Z,73.22
2018-05-07T07:22:23.949Z,74.82
2018-05-07T07:24:49.879Z,75.14
2018-05-07T07:27:15.739Z,71.17
2018-05-07T07:29:41.615Z,73.26
2018-05-07T07:32:07.476Z,70.67
2018-05-07T07:34:33.368Z,69.56
2018-05-07T07:36:59.207Z,69.37
2018-05-07T07:39:25.100Z,67.32
2018-05-07T07:41:50.942Z,67.20
2018-05-07T07:44:16.811Z,66.52
2018-05-07T07:46:42.682Z,67.00
2018-05-07T07:49:08.536Z,66.34
2018-05-07T07:51:34.388Z,67.82
2018-05-07T07:54:00.228Z,68.08
2018-05-07T07:56:26.101Z,68.32
2018-05-07T07:58:51.934Z,65.84
2018-05-07T08:01:17.795Z,63.85
2018-05-07T08:03:43.644Z,64.00
2018-05-07T08:06:09.485Z,63.44
2018-05-07T08:08:35.325Z,62.98
2018-05-07T08:11:01.222Z,62.45
2018-05-07T08:13:27.075Z,62.32
2018-05-07T08:15:52.961Z,61.52
2018-05-07T08:18:18.845Z,60.68
2018-05-07T08:20:44.748Z,62.54
2018-05-07T08:23:10.587Z,61.35
2018-05-07T08:25:36.430Z,60.60
2018-05-07T08:28:02.271Z,59.50
2018-05-07T08:30:28.172Z,57.35
2018-05-07T08:32:53.993Z,55.88
2018-05-07T08:35:19.889Z,56.47
2018-05-07T08:37:45.747Z,56.45
2018-05-07T08:40:11.617Z,56.00
2018-05-07T08:42:37.476Z,55.74
2018-05-07T08:45:03.321Z,55.94
2018-05-07T08:47:29.164Z,55.84
2018-05-07T08:49:55.010Z,54.36
2018-05-07T08:52:20.892Z,54.25
2018-05-07T08:54:46.754Z,55.32
2018-05-07T08:57:12.610Z,54.84
2018-05-07T08:59:38.462Z,54.03
2018-05-07T09:02:04.347Z,53.58
2018-05-07T09:04:30.221Z,53.46
2018-05-07T09:06:56.072Z,53.48
2018-05-07T09:09:21.961Z,53.78
2018-05-07T09:11:47.824Z,53.15
2018-05-07T09:14:13.739Z,53.15
2018-05-07T09:16:39.591Z,52.02
2018-05-07T09:19:05.432Z,52.30
2018-05-07T09:21:31.283Z,52.29
2018-05-07T09:23:57.140Z,53.03
2018-05-07T09:26:22.978Z,51.96
2018-05-07T09:28:48.877Z,50.11
2018-05-07T09:31:14.765Z,50.86
2018-05-07T09:33:40.591Z,49.84
2018-05-07T09:36:06.464Z,50.90
2018-05-07T09:38:32.340Z,48.93
2018-05-07T09:40:58.201Z,50.22
2018-05-07T09:43:24.047Z,49.65
2018-05-07T09:45:49.897Z,48.63
2018-05-07T09:48:15.779Z,49.72
2018-05-07T09:50:41.654Z,49.84
2018-05-07T09:53:07.507Z,47.79
2018-05-07T09:55:33.354Z,48.83
2018-05-07T09:58:02.223Z,46.83
2018-05-07T10:00:34.041Z,47.59
2018-05-07T10:02:59.891Z,46.69
2018-05-07T10:05:25.752Z,46.94
2018-05-07T10:07:51.611Z,47.45
2018-05-07T10:10:17.467Z,47.22
2018-05-07T10:12:43.319Z,47.33
2018-05-07T10:15:09.213Z,46.26
2018-05-07T10:17:35.084Z,47.25
2018-05-07T10:20:00.936Z,48.16
2018-05-07T10:22:26.797Z,47.56
2018-05-07T10:24:52.651Z,46.99
2018-05-07T10:27:18.567Z,46.14
2018-05-07T10:29:44.451Z,45.97
2018-05-07T10:32:10.314Z,46.09
2018-05-07T10:34:36.167Z,45.69
2018-05-07T10:37:02.022Z,43.08
2018-05-07T10:39:28.009Z,43.45
2018-05-07T10:41:53.954Z,42.58
2018-05-07T10:44:19.822Z,42.26
2018-05-07T10:46:45.682Z,41.86
2018-05-07T10:49:11.595Z,41.17
2018-05-07T10:51:37.478Z,42.76
2018-05-07T10:54:03.447Z,40.88
2018-05-07T10:56:29.361Z,41.46
2018-05-07T10:58:55.248Z,40.20
2018-05-07T11:01:21.099Z,40.15
2018-05-07T11:03:46.946Z,40.49
2018-05-07T11:06:12.806Z,40.67
2018-05-07T11:08:38.660Z,40.31
2018-05-07T11:11:04.527Z,40.02
2018-05-07T11:13:30.369Z,39.08
2018-05-07T11:15:56.251Z,37.92
2018-05-07T11:18:22.081Z,39.14
2018-05-07T11:20:47.944Z,38.94
2018-05-07T11:23:13.781Z,37.68
2018-05-07T11:25:39.655Z,37.27
2018-05-07T11:28:05.507Z,37.61
2018-05-07T11:30:31.396Z,36.30
2018-05-07T11:32:57.234Z,35.07
2018-05-07T11:35:23.080Z,36.09
2018-05-07T11:37:48.921Z,34.94
2018-05-07T11:40:14.787Z,34.69
2018-05-07T11:42:40.639Z,34.84
2018-05-07T11:45:06.487Z,34.67
2018-05-07T11:47:32.409Z,34.27
2018-05-07T11:49:58.249Z,34.81
2018-05-07T11:52:24.127Z,33.84
2018-05-07T11:54:49.986Z,34.08
2018-05-07T11:57:15.879Z,33.90
2018-05-07T11:59:41.738Z,33.93
2018-05-07T12:02:07.588Z,33.16
2018-05-07T12:04:33.444Z,33.37
2018-05-07T12:06:59.274Z,31.40
2018-05-07T12:09:25.175Z,31.24
2018-05-07T12:11:51.022Z,31.58
2018-05-07T12:14:16.914Z,32.17
2018-05-07T12:16:42.766Z,31.56
2018-05-07T12:19:08.631Z,31.83
2018-05-07T12:21:34.488Z,31.14
2018-05-07T12:24:00.403Z,30.87
2018-05-07T12:26:26.260Z,30.47
2018-05-07T12:28:52.146Z,29.70
2018-05-07T12:31:18.035Z,30.05
2018-05-07T12:33:43.889Z,31.54
2018-05-07T12:36:09.765Z,29.58
2018-05-07T12:38:35.615Z,29.95
2018-05-07T12:41:01.486Z,30.74
2018-05-07T12:43:27.337Z,29.96
2018-05-07T12:45:53.199Z,29.35
2018-05-07T12:48:19.057Z,29.92
2018-05-07T12:50:45.034Z,29.07
2018-05-07T12:53:10.889Z,29.09
2018-05-07T12:55:36.735Z,27.98
2018-05-07T12:58:02.630Z,28.64
2018-05-07T13:00:28.468Z,28.90
2018-05-07T13:02:54.326Z,28.42
2018-05-07T13:05:20.222Z,28.84
2018-05-07T13:07:46.081Z,28.54
2018-05-07T13:10:11.933Z,27.75
2018-05-07T13:12:37.790Z,27.40
2018-05-07T13:15:03.669Z,27.52
2018-05-07T13:17:29.537Z,26.83
2018-05-07T13:19:55.394Z,27.17
2018-05-07T13:22:21.313Z,26.64
2018-05-07T13:24:47.183Z,26.83
2018-05-07T13:27:13.069Z,27.75
2018-05-07T13:29:38.951Z,26.54
2018-05-07T13:32:04.835Z,26.07
2018-05-07T13:34:30.692Z,27.24
2018-05-07T13:36:56.565Z,27.13
2018-05-07T13:39:22.423Z,25.66
2018-05-07T13:41:48.266Z,25.65
2018-05-07T13:44:14.141Z,26.34
2018-05-07T13:46:39.988Z,27.42
2018-05-07T13:49:05.871Z,26.60
2018-05-07T13:51:31.744Z,27.71
2018-05-07T13:53:57.626Z,27.20
2018-05-07T13:56:23.505Z,27.07
2018-05-07T13:58:49.379Z,26.72
2018-05-07T14:01:15.247Z,26.62
2018-05-07T14:03:41.122Z,27.13
2018-05-07T14:06:06.999Z,28.27
2018-05-07T14:08:32.958Z,27.87
2018-05-07T14:10:58.769Z,26.90
2018-05-07T14:13:24.615Z,26.36
2018-05-07T14:15:50.491Z,27.49
2018-05-07T14:18:16.373Z,27.08
2018-05-07T14:20:42.256Z,27.31
2018-05-07T14:23:08.102Z,26.62
2018-05-07T14:25:33.969Z,26.23
2018-05-07T14:27:59.837Z,26.72
2018-05-07T14:30:25.703Z,26.84
2018-05-07T14:32:51.581Z,26.67
2018-05-07T14:35:17.471Z,25.77
2018-05-07T14:37:43.332Z,26.08
2018-05-07T14:40:09.201Z,26.55
2018-05-07T14:42:35.104Z,27.48
2018-05-07T14:45:00.984Z,27.12
2018-05-07T14:47:26.850Z,25.95
2018-05-07T14:49:52.700Z,25.71
2018-05-07T14:52:18.549Z,26.73
2018-05-07T14:54:44.411Z,25.89
2018-05-07T14:57:10.284Z,25.73
2018-05-07T14:59:36.162Z,26.04
2018-05-07T15:02:02.026Z,26.87
2018-05-07T15:04:27.895Z,27.32
2018-05-07T15:06:53.766Z,28.03
2018-05-07T15:09:19.664Z,27.00
2018-05-07T15:11:45.524Z,27.02
2018-05-07T15:14:22.522Z,28.34
2018-05-07T15:16:48.371Z,26.50
2018-05-07T15:19:14.251Z,28.40
2018-05-07T15:21:40.148Z,27.22
2018-05-07T15:24:05.972Z,27.70
2018-05-07T15:26:31.833Z,27.07
2018-05-07T15:28:57.709Z,27.08
2018-05-07T15:31:23.588Z,26.98
2018-05-07T15:33:49.432Z,27.28
2018-05-07T15:36:15.316Z,25.52
2018-05-07T15:38:41.199Z,26.26
2018-05-07T15:41:07.603Z,25.89
2018-05-07T15:43:33.445Z,25.61
2018-05-07T15:45:59.289Z,25.15
2018-05-07T15:48:25.150Z,25.50
2018-05-07T15:50:51.055Z,25.12
2018-05-07T15:53:16.892Z,25.00
2018-05-07T15:55:42.754Z,24.50
2018-05-07T15:58:08.662Z,24.66
2018-05-07T16:00:34.529Z,23.77
2018-05-07T16:03:00.492Z,24.06
2018-05-07T16:05:26.299Z,24.15
2018-05-07T16:07:52.175Z,24.95
2018-05-07T16:10:18.259Z,23.74
2018-05-07T16:12:44.131Z,23.90
2018-05-07T16:15:10.050Z,23.02
2018-05-07T16:17:35.931Z,23.08
2018-05-07T16:20:01.830Z,23.52
2018-05-07T16:22:27.666Z,22.29
2018-05-07T16:24:53.529Z,22.70
2018-05-07T16:27:19.382Z,22.95
2018-05-07T16:29:45.273Z,23.02
2018-05-07T16:32:11.156Z,23.70
2018-05-07T16:34:37.076Z,24.14
2018-05-07T16:37:02.942Z,23.87
2018-05-07T16:39:28.806Z,24.19
2018-05-07T16:41:54.681Z,24.10
2018-05-07T16:44:20.582Z,24.36
2018-05-07T16:46:46.462Z,24.20
2018-05-07T16:49:12.319Z,25.88
2018-05-07T16:51:38.189Z,28.18
2018-05-07T16:54:04.041Z,28.39
2018-05-07T16:56:29.943Z,29.81
2018-05-07T16:58:55.806Z,29.93
2018-05-07T17:01:21.661Z,30.87
2018-05-07T17:03:47.523Z,30.89
2018-05-07T17:06:13.401Z,30.76
2018-05-07T17:08:39.263Z,30.60
2018-05-07T17:11:05.316Z,31.03
2018-05-07T17:13:31.081Z,30.60
2018-05-07T17:15:56.939Z,30.58
2018-05-07T17:18:22.805Z,29.92
2018-05-07T17:20:48.677Z,30.93
2018-05-07T17:23:14.579Z,31.01
2018-05-07T17:25:40.470Z,32.15
2018-05-07T17:28:06.382Z,32.35
2018-05-07T17:30:32.289Z,33.72
2018-05-07T17:32:58.194Z,33.55
2018-05-07T17:35:24.146Z,33.54
2018-05-07T17:37:50.039Z,34.18
2018-05-07T17:40:15.948Z,35.67
2018-05-07T17:42:41.818Z,35.09
2018-05-07T17:45:19.987Z,36.29
2018-05-07T17:50:45.843Z,36.61
2018-05-07T17:53:11.753Z,36.53
2018-05-07T17:55:37.654Z,36.78
2018-05-07T17:58:03.557Z,37.31
2018-05-07T18:00:29.486Z,36.92
2018-05-07T18:02:55.405Z,38.16
2018-05-07T18:05:21.350Z,37.72
2018-05-07T18:07:47.213Z,38.17
2018-05-07T18:10:13.124Z,38.28
2018-05-07T18:12:39.017Z,39.69
2018-05-07T18:15:05.028Z,40.44
2018-05-07T18:17:31.140Z,39.61
2018-05-07T18:19:56.862Z,41.15
2018-05-07T18:22:22.753Z,41.08
2018-05-07T18:24:48.743Z,43.34
2018-05-07T18:27:14.710Z,44.73
2018-05-07T18:29:40.609Z,43.95
2018-05-07T18:32:06.575Z,44.19
2018-05-07T18:34:32.507Z,44.10
2018-05-07T18:36:58.449Z,45.23
2018-05-07T18:39:24.341Z,46.80
2018-05-07T18:41:50.217Z,45.48
2018-05-07T18:44:16.102Z,47.14
2018-05-07T18:46:42.003Z,48.05
2018-05-07T18:49:07.868Z,48.04
2018-05-07T18:51:33.780Z,48.20
2018-05-07T18:53:59.742Z,49.56
2018-05-07T18:56:25.642Z,48.90
2018-05-07T18:58:51.628Z,49.50
2018-05-07T19:01:17.520Z,48.18
2018-05-07T19:03:43.473Z,50.44
2018-05-07T19:06:09.410Z,51.85
2018-05-07T19:08:35.354Z,52.38
2018-05-07T19:11:01.232Z,51.46
2018-05-07T19:13:27.191Z,52.37
2018-05-07T19:15:53.122Z,50.53
2018-05-07T19:18:19.025Z,53.32
2018-05-07T19:20:45.004Z,52.46
2018-05-07T19:23:10.901Z,53.67
2018-05-07T19:25:36.876Z,54.02
2018-05-07T19:28:02.834Z,54.15
2018-05-07T19:30:28.779Z,55.01
2018-05-07T19:32:54.692Z,55.26
2018-05-07T19:35:20.587Z,55.12
2018-05-07T19:37:46.671Z,55.78
2018-05-07T19:40:12.630Z,55.36
2018-05-07T19:42:38.467Z,55.97
2018-05-07T19:45:04.443Z,56.13
2018-05-07T19:47:30.319Z,56.25
2018-05-07T19:49:56.225Z,56.59
2018-05-07T19:52:22.094Z,56.39
2018-05-07T19:54:48.559Z,56.37
2018-05-07T19:57:14.449Z,55.72
2018-05-07T19:59:40.367Z,56.57
2018-05-07T20:02:06.321Z,55.91
2018-05-07T20:04:32.200Z,56.06
2018-05-07T20:06:58.141Z,56.90
2018-05-07T20:09:24.369Z,57.09
2018-05-07T20:11:50.323Z,57.77
2018-05-07T20:14:16.244Z,57.48
2018-05-07T20:16:42.159Z,57.91
2018-05-07T20:19:08.079Z,57.94
2018-05-07T20:21:34.364Z,58.37
2018-05-07T20:24:00.300Z,58.30
2018-05-07T20:26:26.170Z,58.02
2018-05-07T20:28:52.177Z,58.09
2018-05-07T20:31:18.100Z,59.23
2018-05-07T20:33:44.045Z,59.32
2018-05-07T20:36:09.958Z,58.91
2018-05-07T20:38:35.885Z,59.32
2018-05-07T20:41:01.913Z,59.52
2018-05-07T20:43:27.820Z,59.32
2018-05-07T20:45:53.701Z,60.30
2018-05-07T20:48:19.613Z,60.61
2018-05-07T20:50:45.546Z,60.33
2018-05-07T20:53:11.404Z,60.53
2018-05-07T20:55:37.289Z,60.94
2018-05-07T20:58:03.232Z,61.36
2018-05-07T21:00:29.154Z,60.71
2018-05-07T21:02:55.010Z,61.55
2018-05-07T21:05:20.916Z,61.48
2018-05-07T21:07:46.840Z,60.39
2018-05-07T21:10:12.714Z,60.68
2018-05-07T21:12:38.613Z,61.39
2018-05-07T21:15:04.508Z,60.49
2018-05-07T21:17:30.384Z,60.39
2018-05-07T21:19:56.226Z,61.01
2018-05-07T21:22:22.142Z,60.47
2018-05-07T21:24:48.021Z,60.01
2018-05-07T21:27:13.892Z,59.31
2018-05-07T21:29:39.753Z,60.19
2018-05-07T21:32:05.632Z,59.76
2018-05-07T21:34:31.487Z,59.90
2018-05-07T21:36:57.357Z,59.73
2018-05-07T21:39:23.222Z,59.88
2018-05-07T21:41:49.073Z,59.43
2018-05-07T21:44:14.930Z,58.79
2018-05-07T21:46:40.773Z,59.08
2018-05-07T21:49:06.629Z,59.91
2018-05-07T21:51:32.470Z,59.39
2018-05-07T21:53:58.317Z,60.21
2018-05-07T21:56:24.141Z,59.51
2018-05-07T21:58:49.972Z,59.61
2018-05-07T22:01:15.823Z,59.66
2018-05-07T22:03:41.665Z,60.25
2018-05-07T22:06:07.520Z,60.55
2018-05-07T22:08:33.373Z,59.45
2018-05-07T22:10:59.233Z,59.46
2018-05-07T22:13:25.100Z,59.99
2018-05-07T22:15:50.979Z,59.38
2018-05-07T22:18:16.822Z,59.64
2018-05-07T22:20:42.684Z,59.79
2018-05-07T22:23:08.570Z,59.71
2018-05-07T22:25:34.411Z,59.62
2018-05-07T22:28:00.261Z,59.73
2018-05-07T22:30:26.137Z,59.78
2018-05-07T22:32:51.982Z,59.89
2018-05-07T22:35:17.833Z,59.74
2018-05-07T22:37:43.713Z,59.78
2018-05-07T22:40:09.578Z,59.83
2018-05-07T22:42:35.832Z,59.95
2018-05-07T22:45:01.670Z,59.49
2018-05-07T22:47:27.583Z,59.57
2018-05-07T22:49:53.426Z,60.15
2018-05-07T22:52:19.304Z,60.68
2018-05-07T22:54:45.178Z,60.17
2018-05-07T22:57:11.033Z,59.92
2018-05-07T22:59:36.905Z,60.49
2018-05-07T23:02:02.751Z,61.12
2018-05-07T23:04:28.583Z,60.73
2018-05-07T23:06:54.424Z,61.19
2018-05-07T23:09:20.272Z,61.81
2018-05-07T23:11:46.117Z,61.50
2018-05-07T23:14:11.987Z,62.09
2018-05-07T23:16:37.826Z,61.70
2018-05-07T23:19:03.701Z,61.99
2018-05-07T23:21:29.539Z,62.07
2018-05-07T23:23:55.373Z,62.38
2018-05-07T23:26:21.224Z,62.20
2018-05-07T23:28:47.057Z,63.27
2018-05-07T23:31:12.913Z,63.46
2018-05-07T23:33:38.794Z,63.80
2018-05-07T23:36:04.668Z,63.25
2018-05-07T23:38:30.522Z,63.89
2018-05-07T23:40:56.375Z,64.14
2018-05-07T23:43:22.231Z,63.98
2018-05-07T23:45:48.134Z,63.50
2018-05-07T23:48:13.974Z,64.93
2018-05-07T23:50:39.844Z,64.74
2018-05-07T23:53:05.695Z,65.59
2018-05-07T23:55:31.552Z,65.65
2018-05-07T23:57:57.392Z,66.59
